Time;durP1;ratioP1;P1;durP2;ratioP2;P2;SDS_P1;SDS_P2;PMS_P1;PMS_P2;Temp;Humidity;BMP_temperature;BMP_pressure;BME280_temperature;BME280_humidity;BME280_pressure;Samples;Min_cycle;Max_cycle;Signal;HPM_P1;HPM_P2
2021/08/07 00:00:21;;;;;;;3.60;2.17;;;19.90;98.80;;;;;;6173878;23;20403;-84
2021/08/07 00:02:48;;;;;;;3.33;1.80;;;19.90;98.90;;;;;;6147588;23;20411;-80
2021/08/07 00:05:15;;;;;;;2.00;1.60;;;20.00;98.80;;;;;;6164978;23;20477;-83
2021/08/07 00:07:42;;;;;;;2.93;2.23;;;19.90;98.90;;;;;;6164363;23;20450;-82
2021/08/07 00:10:09;;;;;;;1.43;1.33;;;19.90;98.80;;;;;;6164435;23;20430;-79
2021/08/07 00:12:37;;;;;;;1.87;1.77;;;19.80;99.00;;;;;;6165431;23;20411;-82
2021/08/07 00:15:05;;;;;;;2.33;1.33;;;19.80;99.10;;;;;;6137449;23;20530;-81
2021/08/07 00:17:32;;;;;;;2.73;1.40;;;19.80;99.10;;;;;;6137357;23;20439;-81
2021/08/07 00:19:59;;;;;;;2.07;1.60;;;19.70;99.20;;;;;;6136354;23;20498;-81
2021/08/07 00:22:26;;;;;;;2.47;2.27;;;19.60;99.60;;;;;;6160429;23;21160;-81
2021/08/07 00:24:54;;;;;;;2.80;1.50;;;19.70;99.50;;;;;;6134920;23;20407;-82
2021/08/07 00:27:21;;;;;;;3.23;1.90;;;19.70;99.50;;;;;;6159694;23;20415;-79
2021/08/07 00:29:47;;;;;;;1.83;1.73;;;19.60;99.50;;;;;;6160537;23;20421;-80
2021/08/07 00:32:14;;;;;;;2.10;1.70;;;19.60;99.80;;;;;;6161373;23;20518;-81
2021/08/07 00:34:41;;;;;;;2.13;1.73;;;19.50;99.90;;;;;;6161214;23;20729;-82
2021/08/07 00:37:08;;;;;;;2.83;1.90;;;19.70;99.80;;;;;;6135171;23;20502;-82
2021/08/07 00:39:34;;;;;;;4.63;2.13;;;19.70;99.80;;;;;;6161944;23;20442;-83
2021/08/07 00:42:01;;;;;;;2.07;1.80;;;19.50;99.90;;;;;;6160084;23;20431;-81
2021/08/07 00:44:28;;;;;;;1.93;1.83;;;19.50;99.90;;;;;;6136781;23;20407;-83
2021/08/07 00:46:55;;;;;;;1.70;1.47;;;19.50;99.90;;;;;;6158743;23;20762;-82
2021/08/07 00:49:22;;;;;;;1.60;1.50;;;19.60;99.90;;;;;;6134670;23;20768;-83
2021/08/07 00:51:49;;;;;;;1.60;1.50;;;19.60;99.80;;;;;;6160564;23;20434;-83
2021/08/07 00:54:16;;;;;;;1.30;1.20;;;19.60;99.90;;;;;;6135355;23;20439;-80
2021/08/07 00:56:43;;;;;;;1.87;1.77;;;19.60;99.90;;;;;;6134637;23;20498;-80
2021/08/07 00:59:10;;;;;;;2.93;1.93;;;19.60;99.90;;;;;;6134671;23;20380;-82
2021/08/07 01:01:42;;;;;;;2.30;1.37;;;19.40;99.90;;;;;;6160144;23;20429;-82
2021/08/07 01:04:16;;;;;;;2.37;1.70;;;19.30;99.90;;;;;;6161134;23;20383;-84
2021/08/07 01:07:06;;;;;;;1.43;1.33;;;19.30;99.90;;;;;;6160554;23;20400;-81
2021/08/07 01:10:04;;;;;;;1.97;1.20;;;19.30;99.90;;;;;;6165681;23;20415;-82
2021/08/07 01:12:54;;;;;;;3.90;1.63;;;19.40;99.90;;;;;;6167812;23;20435;-83
2021/08/07 01:15:24;;;;;;;4.00;1.43;;;19.30;99.90;;;;;;6161549;23;20403;-82
2021/08/07 01:17:53;;;;;;;1.30;1.20;;;19.40;99.90;;;;;;6162375;23;20493;-81
2021/08/07 01:20:27;;;;;;;2.37;1.53;;;19.20;99.90;;;;;;6137929;23;20498;-82
2021/08/07 01:23:10;;;;;;;4.53;1.60;;;19.20;99.90;;;;;;6139139;23;20526;-83
2021/08/07 01:25:55;;;;;;;1.97;1.50;;;19.30;99.90;;;;;;6168950;23;20442;-81
2021/08/07 01:28:26;;;;;;;2.33;1.87;;;19.30;99.90;;;;;;6144527;23;20466;-80
2021/08/07 01:30:54;;;;;;;2.10;1.60;;;19.30;99.90;;;;;;6172179;23;20427;-82
2021/08/07 01:33:24;;;;;;;3.63;1.70;;;19.40;99.90;;;;;;6170304;23;20412;-84
2021/08/07 01:35:51;;;;;;;1.80;1.53;;;19.30;99.90;;;;;;6169379;23;20494;-83
2021/08/07 01:38:18;;;;;;;2.83;1.50;;;19.20;99.90;;;;;;6164491;23;20422;-83
2021/08/07 01:40:45;;;;;;;2.20;1.67;;;19.10;99.90;;;;;;6137297;23;20435;-83
2021/08/07 01:43:12;;;;;;;1.60;1.50;;;19.10;99.90;;;;;;6164160;23;20946;-83
2021/08/07 01:45:40;;;;;;;1.40;1.30;;;19.20;99.90;;;;;;6138095;23;20411;-83
2021/08/07 01:48:10;;;;;;;1.23;1.13;;;19.10;99.90;;;;;;6162810;23;20411;-82
2021/08/07 01:50:43;;;;;;;2.30;1.40;;;19.00;99.90;;;;;;6135568;23;20438;-81
2021/08/07 01:53:13;;;;;;;1.57;1.47;;;18.90;99.90;;;;;;6161781;23;20415;-82
2021/08/07 01:55:47;;;;;;;4.33;1.73;;;18.90;99.90;;;;;;6162404;23;20442;-82
2021/08/07 01:58:24;;;;;;;3.50;1.40;;;19.00;99.90;;;;;;6162329;23;20442;-81
2021/08/07 02:00:51;;;;;;;1.93;1.40;;;19.00;99.90;;;;;;6162826;23;20441;-81
2021/08/07 02:03:19;;;;;;;2.80;1.60;;;19.00;99.90;;;;;;6136628;23;20423;-81
2021/08/07 02:05:47;;;;;;;2.37;1.87;;;18.90;99.90;;;;;;6135222;23;20462;-82
2021/08/07 02:08:16;;;;;;;2.00;1.43;;;18.80;99.90;;;;;;6136557;23;20429;-80
2021/08/07 02:10:46;;;;;;;2.37;1.40;;;18.90;99.90;;;;;;6112200;23;20434;-82
2021/08/07 02:13:16;;;;;;;3.37;2.37;;;18.80;99.90;;;;;;6163367;23;20434;-81
2021/08/07 02:15:45;;;;;;;3.73;1.73;;;18.70;99.90;;;;;;6165143;23;20722;-83
2021/08/07 02:18:13;;;;;;;3.63;2.00;;;18.80;99.90;;;;;;6137484;23;20801;-83
2021/08/07 02:20:40;;;;;;;3.10;1.73;;;18.90;99.90;;;;;;6139392;23;20435;-81
2021/08/07 02:23:07;;;;;;;3.30;1.73;;;19.00;99.90;;;;;;6168272;23;20407;-79
2021/08/07 02:25:34;;;;;;;2.20;1.47;;;18.90;99.90;;;;;;6170657;23;20395;-81
2021/08/07 02:28:01;;;;;;;2.20;1.50;;;18.90;99.90;;;;;;6170254;23;20419;-80
2021/08/07 02:30:29;;;;;;;2.67;2.23;;;18.80;99.90;;;;;;6168662;23;20411;-79
2021/08/07 02:32:56;;;;;;;2.27;1.70;;;18.60;99.90;;;;;;6170790;23;20418;-79
2021/08/07 02:35:23;;;;;;;2.60;1.90;;;18.50;99.90;;;;;;6169139;23;20414;-80
2021/08/07 02:37:50;;;;;;;4.87;2.47;;;18.90;99.90;;;;;;6173352;23;20438;-81
2021/08/07 02:40:18;;;;;;;2.00;1.90;;;18.90;99.90;;;;;;6173444;23;20387;-80
2021/08/07 02:42:46;;;;;;;2.43;1.90;;;18.90;99.90;;;;;;6175300;23;20403;-83
2021/08/07 02:45:13;;;;;;;2.40;1.77;;;18.70;99.90;;;;;;6151967;23;20426;-82
2021/08/07 02:47:40;;;;;;;3.10;1.83;;;18.60;99.90;;;;;;6177954;23;20421;-81
2021/08/07 02:50:07;;;;;;;3.13;1.93;;;18.60;99.90;;;;;;6179058;23;20732;-80
2021/08/07 02:52:34;;;;;;;1.53;1.43;;;18.60;99.90;;;;;;6177820;23;20431;-82
2021/08/07 02:55:03;;;;;;;2.97;1.87;;;18.50;99.90;;;;;;6178800;23;20427;-83
2021/08/07 02:57:31;;;;;;;5.03;1.90;;;18.50;99.90;;;;;;6151527;23;20439;-81
2021/08/07 02:59:58;;;;;;;2.80;1.70;;;18.40;99.90;;;;;;6148252;23;20481;-80
2021/08/07 03:02:26;;;;;;;2.20;1.47;;;18.50;99.90;;;;;;6146921;23;20437;-81
2021/08/07 03:04:53;;;;;;;1.60;1.30;;;18.50;99.90;;;;;;6171788;23;20383;-81
2021/08/07 03:07:19;;;;;;;3.60;1.63;;;18.50;99.90;;;;;;6146470;23;20445;-84
2021/08/07 03:09:46;;;;;;;1.90;1.50;;;18.60;99.90;;;;;;6144095;23;20427;-81
2021/08/07 03:12:15;;;;;;;2.93;1.90;;;18.50;99.90;;;;;;6166762;23;20415;-84
2021/08/07 03:14:43;;;;;;;4.17;1.40;;;18.50;99.90;;;;;;6144452;23;20498;-83
2021/08/07 03:17:10;;;;;;;2.03;1.73;;;18.40;99.90;;;;;;6165692;23;20502;-84
2021/08/07 03:19:36;;;;;;;2.90;1.30;;;18.50;99.90;;;;;;6139228;23;20402;-82
2021/08/07 03:22:03;;;;;;;2.03;1.60;;;18.60;99.90;;;;;;6139653;23;20439;-83
2021/08/07 03:24:30;;;;;;;1.30;1.20;;;18.50;99.90;;;;;;6150056;23;20430;-84
2021/08/07 03:26:58;;;;;;;2.20;1.73;;;18.30;99.90;;;;;;6163710;23;20498;-81
2021/08/07 03:29:26;;;;;;;4.23;1.57;;;18.40;99.90;;;;;;6143833;23;20407;-81
2021/08/07 03:31:52;;;;;;;1.57;1.30;;;18.50;99.90;;;;;;6171334;23;20431;-82
2021/08/07 03:34:19;;;;;;;1.57;1.47;;;18.60;99.90;;;;;;6173030;23;21093;-81
2021/08/07 03:36:46;;;;;;;4.60;1.83;;;18.50;99.90;;;;;;6142866;23;20419;-82
2021/08/07 03:39:12;;;;;;;1.83;1.73;;;18.30;99.90;;;;;;6166126;23;20477;-82
2021/08/07 03:41:39;;;;;;;3.83;1.83;;;18.20;99.90;;;;;;6172169;23;20553;-84
2021/08/07 03:44:06;;;;;;;4.73;2.10;;;18.20;99.90;;;;;;6171830;23;20411;-80
2021/08/07 03:46:32;;;;;;;2.90;1.60;;;18.20;99.90;;;;;;6169439;23;20467;-83
2021/08/07 03:48:59;;;;;;;2.80;1.77;;;18.00;99.90;;;;;;6143146;23;20414;-84
2021/08/07 03:51:26;;;;;;;2.20;1.70;;;18.10;99.90;;;;;;6146448;23;20498;-83
2021/08/07 03:53:53;;;;;;;1.63;1.50;;;18.20;99.90;;;;;;6146772;23;20402;-82
2021/08/07 03:56:20;;;;;;;3.07;1.57;;;18.30;99.90;;;;;;6146806;23;20411;-81
2021/08/07 03:58:47;;;;;;;5.23;1.60;;;18.20;99.90;;;;;;6145167;23;20808;-82
2021/08/07 04:01:13;;;;;;;1.73;1.63;;;18.30;99.90;;;;;;6166236;23;20419;-83
2021/08/07 04:03:40;;;;;;;1.70;1.60;;;18.30;99.90;;;;;;6141522;23;20435;-83
2021/08/07 04:06:25;;;;;;;3.37;1.83;;;18.20;99.90;;;;;;6168682;23;20387;-83
2021/08/07 04:08:51;;;;;;;1.90;1.80;;;18.10;99.90;;;;;;6157748;23;20420;-83
2021/08/07 04:11:18;;;;;;;1.53;1.43;;;18.20;99.90;;;;;;6179903;23;20449;-82
2021/08/07 04:13:45;;;;;;;2.53;1.57;;;18.00;99.90;;;;;;6179041;23;20437;-80
2021/08/07 04:16:11;;;;;;;2.37;1.70;;;18.00;99.90;;;;;;6173498;23;20417;-80
2021/08/07 04:18:38;;;;;;;3.30;1.80;;;18.00;99.90;;;;;;6146110;23;20435;-80
2021/08/07 04:21:05;;;;;;;2.33;1.67;;;18.00;99.90;;;;;;6168833;23;20885;-82
2021/08/07 04:23:31;;;;;;;3.20;1.80;;;18.10;99.90;;;;;;6170653;23;20461;-82
2021/08/07 04:25:58;;;;;;;1.93;1.70;;;18.00;99.90;;;;;;6168525;23;20434;-84
2021/08/07 04:28:25;;;;;;;3.73;2.20;;;18.00;99.90;;;;;;6168679;23;20422;-82
2021/08/07 04:30:52;;;;;;;3.47;1.83;;;18.10;99.90;;;;;;6142794;23;20457;-82
2021/08/07 04:33:19;;;;;;;2.03;1.60;;;18.10;99.90;;;;;;6166092;23;20419;-83
2021/08/07 04:35:45;;;;;;;2.53;1.60;;;18.10;99.90;;;;;;6166964;23;20463;-83
2021/08/07 04:38:12;;;;;;;4.60;1.87;;;18.10;99.90;;;;;;6165426;23;20445;-83
2021/08/07 04:40:39;;;;;;;3.53;2.10;;;18.10;99.90;;;;;;6168853;23;20417;-80
2021/08/07 04:43:05;;;;;;;2.13;1.93;;;18.00;99.90;;;;;;6147184;23;20465;-83
2021/08/07 04:45:32;;;;;;;4.30;1.70;;;18.00;99.90;;;;;;6145923;23;20482;-82
2021/08/07 04:48:05;;;;;;;4.57;1.50;;;17.90;99.90;;;;;;6166790;23;20466;-84
2021/08/07 04:50:34;;;;;;;2.60;1.60;;;17.90;99.90;;;;;;6168234;23;20438;-82
2021/08/07 04:53:01;;;;;;;1.97;1.53;;;18.10;99.90;;;;;;6165122;23;20420;-84
2021/08/07 04:55:28;;;;;;;3.00;1.60;;;18.20;99.90;;;;;;6165703;23;20415;-83
2021/08/07 04:57:55;;;;;;;1.67;1.57;;;18.20;99.90;;;;;;6164335;23;20503;-82
2021/08/07 05:00:22;;;;;;;4.43;1.67;;;18.20;99.90;;;;;;6139969;23;20396;-81
2021/08/07 05:02:49;;;;;;;2.77;1.63;;;18.20;99.90;;;;;;6138736;23;20772;-85
2021/08/07 05:05:17;;;;;;;1.53;1.43;;;18.20;99.90;;;;;;6145544;23;20404;-83
2021/08/07 05:07:44;;;;;;;1.63;1.37;;;18.20;99.90;;;;;;6139599;23;20485;-82
2021/08/07 05:10:12;;;;;;;1.97;1.50;;;18.00;99.90;;;;;;6138492;23;20419;-81
2021/08/07 05:12:40;;;;;;;1.53;1.43;;;18.20;99.90;;;;;;6138730;23;20478;-82
2021/08/07 05:15:08;;;;;;;2.70;1.90;;;18.30;99.90;;;;;;6163247;23;20411;-81
2021/08/07 05:17:35;;;;;;;3.70;1.70;;;18.20;99.90;;;;;;6162896;23;20442;-82
2021/08/07 05:20:02;;;;;;;2.20;1.63;;;18.30;99.90;;;;;;6166195;23;20395;-81
2021/08/07 05:22:29;;;;;;;3.80;1.77;;;18.20;99.90;;;;;;6141010;23;20427;-81
2021/08/07 05:24:55;;;;;;;2.10;1.60;;;18.30;99.90;;;;;;6140334;23;20479;-82
2021/08/07 05:27:22;;;;;;;2.00;1.80;;;18.20;99.90;;;;;;6165245;23;20466;-81
2021/08/07 05:29:49;;;;;;;2.90;1.80;;;18.40;99.90;;;;;;6168061;23;20414;-82
2021/08/07 05:32:15;;;;;;;1.83;1.40;;;18.40;99.90;;;;;;6167607;23;20482;-81
2021/08/07 05:34:42;;;;;;;2.00;1.50;;;18.40;99.90;;;;;;6142815;23;20434;-81
2021/08/07 05:37:09;;;;;;;1.87;1.60;;;18.40;99.90;;;;;;6181454;23;20418;-82
2021/08/07 05:39:35;;;;;;;1.70;1.50;;;18.30;99.90;;;;;;6156646;23;20467;-82
2021/08/07 05:42:02;;;;;;;3.37;1.67;;;18.20;99.90;;;;;;6156916;23;20470;-83
2021/08/07 05:44:29;;;;;;;1.90;1.30;;;18.30;99.90;;;;;;6182389;23;20416;-82
2021/08/07 05:46:56;;;;;;;2.77;1.43;;;18.40;99.90;;;;;;6181519;23;20506;-82
2021/08/07 05:49:24;;;;;;;6.77;1.60;;;18.40;99.90;;;;;;6181872;23;20537;-84
2021/08/07 05:51:51;;;;;;;3.60;1.80;;;18.30;99.90;;;;;;6154181;23;20438;-85
2021/08/07 05:54:20;;;;;;;1.90;1.53;;;18.40;99.90;;;;;;6153917;23;20403;-83
2021/08/07 05:56:47;;;;;;;3.03;1.80;;;18.70;99.90;;;;;;6131781;23;20411;-82
2021/08/07 05:59:14;;;;;;;1.70;1.50;;;18.60;99.90;;;;;;6156878;23;21000;-81
2021/08/07 06:01:40;;;;;;;3.07;1.50;;;18.70;99.90;;;;;;6157603;23;20491;-81
2021/08/07 06:04:07;;;;;;;2.50;1.83;;;18.90;99.90;;;;;;6131420;23;20415;-80
2021/08/07 06:06:34;;;;;;;1.83;1.50;;;18.90;99.90;;;;;;6131525;23;21114;-81
2021/08/07 06:09:01;;;;;;;4.60;1.60;;;18.70;99.90;;;;;;6159299;23;20419;-81
2021/08/07 06:11:27;;;;;;;1.37;1.27;;;18.80;99.90;;;;;;6159493;23;20515;-80
2021/08/07 06:13:54;;;;;;;3.40;1.80;;;18.80;99.90;;;;;;6134305;23;20441;-82
2021/08/07 06:16:21;;;;;;;2.80;1.60;;;18.80;99.90;;;;;;6132269;23;20487;-81
2021/08/07 06:18:48;;;;;;;2.60;1.50;;;18.90;99.90;;;;;;6136652;23;20922;-82
2021/08/07 06:21:15;;;;;;;4.63;2.07;;;19.00;99.90;;;;;;6134821;23;20518;-81
2021/08/07 06:23:42;;;;;;;1.93;1.60;;;18.80;99.90;;;;;;6165032;23;20411;-83
2021/08/07 06:26:09;;;;;;;2.60;1.47;;;18.90;99.90;;;;;;6162571;23;20403;-80
2021/08/07 06:28:39;;;;;;;2.57;1.37;;;18.90;99.90;;;;;;6140845;23;20422;-82
2021/08/07 06:31:09;;;;;;;4.67;1.57;;;18.90;99.90;;;;;;6164961;23;20435;-82
2021/08/07 06:33:41;;;;;;;3.73;1.67;;;18.70;99.90;;;;;;6164494;23;20474;-83
2021/08/07 06:36:14;;;;;;;4.07;1.67;;;18.80;99.90;;;;;;6138708;23;20424;-82
2021/08/07 06:38:51;;;;;;;4.00;1.50;;;18.90;99.90;;;;;;6142190;23;20454;-84
2021/08/07 06:41:30;;;;;;;2.10;1.70;;;19.00;99.90;;;;;;6147663;23;20929;-82
2021/08/07 06:44:00;;;;;;;2.80;2.20;;;19.10;99.90;;;;;;6144708;23;20422;-81
2021/08/07 06:46:30;;;;;;;2.03;1.37;;;19.30;99.90;;;;;;6142989;23;20434;-82
2021/08/07 06:48:57;;;;;;;4.20;2.00;;;19.30;99.90;;;;;;6144287;23;20473;-80
2021/08/07 06:51:30;;;;;;;3.50;1.73;;;19.40;99.90;;;;;;6166339;23;20447;-82
2021/08/07 06:54:00;;;;;;;2.40;1.70;;;19.40;99.90;;;;;;6165343;23;20438;-81
2021/08/07 06:56:27;;;;;;;3.67;1.70;;;19.50;99.90;;;;;;6165590;23;20425;-82
2021/08/07 06:58:54;;;;;;;3.00;1.73;;;19.60;99.90;;;;;;6141789;23;20449;-82
2021/08/07 07:01:21;;;;;;;1.90;1.50;;;19.60;99.90;;;;;;6136482;23;20466;-81
2021/08/07 07:03:48;;;;;;;3.13;1.53;;;19.60;99.90;;;;;;6168554;23;20463;-83
2021/08/07 07:06:14;;;;;;;5.80;2.13;;;19.60;99.90;;;;;;6141549;23;20415;-82
2021/08/07 07:08:41;;;;;;;4.03;1.87;;;19.70;99.90;;;;;;6139798;23;20415;-82
2021/08/07 07:11:08;;;;;;;4.10;1.80;;;19.70;99.90;;;;;;6139254;23;20454;-82
2021/08/07 07:13:35;;;;;;;1.90;1.70;;;19.80;99.90;;;;;;6166678;23;20411;-83
2021/08/07 07:16:02;;;;;;;1.60;1.50;;;19.60;99.90;;;;;;6170349;23;20413;-84
2021/08/07 07:18:29;;;;;;;2.03;1.90;;;19.60;99.90;;;;;;6147321;23;20531;-83
2021/08/07 07:20:56;;;;;;;2.47;1.60;;;19.50;99.90;;;;;;6147770;23;20433;-81
2021/08/07 07:23:23;;;;;;;2.40;1.60;;;19.70;99.90;;;;;;6172718;23;20441;-80
2021/08/07 07:25:52;;;;;;;2.40;2.00;;;19.80;99.90;;;;;;6147155;23;20410;-82
2021/08/07 07:28:18;;;;;;;3.30;1.93;;;19.90;99.90;;;;;;6166754;23;20414;-82
2021/08/07 07:30:45;;;;;;;2.40;1.83;;;20.20;99.90;;;;;;6165516;23;20443;-83
2021/08/07 07:33:14;;;;;;;1.93;1.80;;;20.60;99.90;;;;;;6139139;23;20434;-82
2021/08/07 07:35:41;;;;;;;4.90;1.90;;;21.00;99.10;;;;;;6147647;23;20418;-80
2021/08/07 07:38:08;;;;;;;3.30;2.10;;;20.80;99.20;;;;;;6174348;23;20486;-82
2021/08/07 07:40:35;;;;;;;2.80;1.57;;;20.80;99.20;;;;;;6176862;23;20399;-81
2021/08/07 07:43:02;;;;;;;1.83;1.37;;;20.90;98.80;;;;;;6178673;23;20438;-84
2021/08/07 07:45:29;;;;;;;2.50;1.70;;;21.00;99.00;;;;;;6148631;23;20438;-81
2021/08/07 07:47:57;;;;;;;6.67;2.60;;;21.20;98.70;;;;;;6163723;23;20419;-80
2021/08/07 07:50:24;;;;;;;5.13;1.67;;;21.40;98.20;;;;;;6162594;23;20465;-82
2021/08/07 07:52:51;;;;;;;4.43;1.93;;;22.00;97.20;;;;;;6140998;23;20473;-80
2021/08/07 07:55:18;;;;;;;2.07;1.40;;;23.10;95.30;;;;;;6165717;23;20438;-82
2021/08/07 07:57:46;;;;;;;2.00;1.50;;;22.90;95.10;;;;;;6140024;23;20453;-81
2021/08/07 08:00:13;;;;;;;3.60;2.27;;;22.60;95.40;;;;;;6165611;23;20417;-80
2021/08/07 08:02:40;;;;;;;2.90;1.90;;;22.70;96.50;;;;;;6151866;23;20438;-82
2021/08/07 08:05:07;;;;;;;6.30;2.97;;;24.70;93.00;;;;;;6151886;23;20415;-84
2021/08/07 08:07:34;;;;;;;1.53;1.23;;;24.90;91.60;;;;;;6145658;23;20483;-81
2021/08/07 08:10:01;;;;;;;6.43;1.60;;;26.30;90.00;;;;;;6165959;23;20410;-83
2021/08/07 08:12:28;;;;;;;1.73;1.50;;;26.60;83.80;;;;;;6178639;23;20481;-86
2021/08/07 08:14:55;;;;;;;1.43;1.27;;;26.40;85.40;;;;;;6155920;23;20404;-84
2021/08/07 08:17:22;;;;;;;4.23;1.70;;;26.90;81.30;;;;;;6181472;23;20422;-84
2021/08/07 08:19:49;;;;;;;3.63;1.40;;;27.40;79.50;;;;;;6156822;23;20441;-84
2021/08/07 08:22:16;;;;;;;2.50;1.10;;;28.70;73.80;;;;;;6171928;23;20434;-83
2021/08/07 08:24:42;;;;;;;2.43;1.27;;;28.90;70.00;;;;;;6163640;23;20414;-82
2021/08/07 08:27:09;;;;;;;2.47;1.13;;;28.30;71.30;;;;;;6164323;23;20407;-82
2021/08/07 08:29:36;;;;;;;2.23;1.10;;;28.30;69.90;;;;;;6165635;23;20415;-82
2021/08/07 08:32:03;;;;;;;2.27;1.47;;;28.30;70.90;;;;;;6139893;23;20438;-82
2021/08/07 08:34:30;;;;;;;8.23;1.83;;;28.80;68.70;;;;;;6167023;23;20415;-82
2021/08/07 08:36:56;;;;;;;2.40;1.30;;;28.00;69.50;;;;;;6142530;23;20391;-81
2021/08/07 08:39:23;;;;;;;2.63;1.20;;;26.80;73.00;;;;;;6138091;23;20533;-81
2021/08/07 08:41:50;;;;;;;2.40;1.60;;;25.70;75.60;;;;;;6160356;23;20427;-82
2021/08/07 08:44:17;;;;;;;1.87;1.60;;;24.80;79.90;;;;;;6161320;23;20441;-82
2021/08/07 08:46:44;;;;;;;2.40;1.60;;;24.20;84.20;;;;;;6161335;23;20407;-83
2021/08/07 08:49:15;;;;;;;2.37;1.40;;;23.40;86.60;;;;;;6163871;23;20430;-80
2021/08/07 08:51:45;;;;;;;3.83;1.53;;;23.20;90.00;;;;;;6177543;23;20491;-81
2021/08/07 08:54:12;;;;;;;3.73;1.50;;;23.30;89.40;;;;;;6178967;23;20470;-81
2021/08/07 08:56:39;;;;;;;3.23;1.70;;;23.10;90.00;;;;;;6151484;23;20407;-80
2021/08/07 08:59:09;;;;;;;4.43;1.40;;;23.30;89.90;;;;;;6177759;23;20445;-80
2021/08/07 09:01:37;;;;;;;3.63;1.50;;;23.30;89.50;;;;;;6149851;23;20433;-83
2021/08/07 09:04:05;;;;;;;3.27;1.70;;;23.20;89.90;;;;;;6166624;23;20475;-83
2021/08/07 09:06:32;;;;;;;2.47;1.90;;;23.10;90.00;;;;;;6162869;23;20414;-83
2021/08/07 09:09:04;;;;;;;1.77;1.40;;;23.00;89.70;;;;;;6140343;23;20419;-85
2021/08/07 09:11:31;;;;;;;1.30;1.00;;;23.20;90.20;;;;;;6163093;23;20776;-81
2021/08/07 09:14:29;;;;;;;2.40;1.50;;;23.50;89.70;;;;;;6164364;23;20719;-84
2021/08/07 09:17:01;;;;;;;2.40;1.13;;;23.90;88.70;;;;;;6162356;23;20899;-82
2021/08/07 09:19:52;;;;;;;2.03;1.30;;;24.20;86.00;;;;;;6163381;23;20435;-82
2021/08/07 09:22:31;;;;;;;1.87;1.17;;;24.10;85.80;;;;;;6161769;23;20442;-83
2021/08/07 09:25:03;;;;;;;3.27;1.47;;;24.00;85.50;;;;;;6161689;23;20470;-83
2021/08/07 09:27:44;;;;;;;2.23;1.30;;;23.70;86.30;;;;;;6162822;23;20426;-83
2021/08/07 09:30:17;;;;;;;2.57;1.27;;;23.80;86.50;;;;;;6163052;23;20455;-83
2021/08/07 09:33:09;;;;;;;4.80;1.80;;;23.40;87.70;;;;;;6136192;23;20407;-82
2021/08/07 09:35:42;;;;;;;3.67;1.30;;;23.30;88.50;;;;;;6147761;23;20433;-81
2021/08/07 09:38:23;;;;;;;3.33;1.50;;;23.20;89.30;;;;;;6139775;23;20712;-82
2021/08/07 09:40:55;;;;;;;2.20;1.40;;;23.30;89.20;;;;;;6138186;23;20440;-84
2021/08/07 09:43:24;;;;;;;5.13;1.40;;;22.90;90.00;;;;;;6162349;23;20914;-84
2021/08/07 09:46:21;;;;;;;2.93;1.50;;;22.60;90.70;;;;;;6162206;23;20407;-82
2021/08/07 09:48:50;;;;;;;3.83;1.30;;;22.30;91.70;;;;;;6161075;23;20435;-83
2021/08/07 09:51:26;;;;;;;2.20;1.30;;;22.10;91.80;;;;;;6161162;23;20434;-84
2021/08/07 09:54:06;;;;;;;2.10;1.20;;;22.10;92.20;;;;;;6162394;23;20493;-80
2021/08/07 09:56:47;;;;;;;1.80;1.53;;;22.20;91.80;;;;;;6161241;23;20734;-81
2021/08/07 09:59:16;;;;;;;4.10;1.40;;;22.40;91.60;;;;;;6162476;23;21345;-81
2021/08/07 10:01:43;;;;;;;3.73;1.30;;;22.70;90.80;;;;;;6162430;23;20462;-82
2021/08/07 10:04:12;;;;;;;2.07;1.57;;;22.70;90.40;;;;;;6136748;23;20423;-83
2021/08/07 10:06:40;;;;;;;3.77;1.70;;;22.70;90.30;;;;;;6162426;23;20738;-85
2021/08/07 10:09:08;;;;;;;4.37;1.43;;;22.60;90.60;;;;;;6169034;23;20507;-84
2021/08/07 10:11:35;;;;;;;4.33;1.83;;;22.40;90.80;;;;;;6171885;23;20494;-86
2021/08/07 10:14:03;;;;;;;3.03;1.33;;;22.60;90.80;;;;;;6164579;23;20773;-82
2021/08/07 10:16:31;;;;;;;2.83;1.60;;;23.00;89.90;;;;;;6161095;23;20748;-83
2021/08/07 10:18:58;;;;;;;2.30;1.67;;;23.00;89.60;;;;;;6160234;23;20443;-84
2021/08/07 10:21:25;;;;;;;2.70;1.10;;;23.00;89.60;;;;;;6160989;23;20469;-83
2021/08/07 10:23:54;;;;;;;4.00;1.40;;;23.40;88.30;;;;;;6162209;23;20413;-82
2021/08/07 10:26:24;;;;;;;2.53;1.53;;;24.20;84.50;;;;;;6160819;23;20449;-82
2021/08/07 10:28:58;;;;;;;3.87;1.47;;;24.80;81.60;;;;;;6161312;23;20406;-82
2021/08/07 10:31:27;;;;;;;2.13;1.33;;;25.30;78.70;;;;;;6159841;23;20517;-84
2021/08/07 10:34:04;;;;;;;2.20;1.30;;;25.10;78.50;;;;;;6132764;23;20684;-83
2021/08/07 10:36:31;;;;;;;1.70;1.23;;;24.60;79.50;;;;;;6162571;23;20405;-83
2021/08/07 10:38:58;;;;;;;2.10;1.40;;;24.00;81.50;;;;;;6162118;23;20965;-83
2021/08/07 10:41:32;;;;;;;2.47;1.23;;;23.40;82.90;;;;;;6133376;23;20443;-84
2021/08/07 10:44:00;;;;;;;1.20;1.10;;;23.10;84.60;;;;;;6158045;23;20409;-82
2021/08/07 10:46:28;;;;;;;2.60;1.47;;;22.80;86.30;;;;;;6156913;23;21094;-81
2021/08/07 10:48:55;;;;;;;3.50;1.50;;;22.80;86.80;;;;;;6132363;23;20906;-81
2021/08/07 10:51:24;;;;;;;6.00;1.50;;;22.70;86.80;;;;;;6157080;23;20809;-82
2021/08/07 10:53:53;;;;;;;2.77;1.90;;;22.60;87.00;;;;;;6159128;23;20422;-81
2021/08/07 10:56:41;;;;;;;2.67;1.20;;;22.20;89.00;;;;;;6157823;23;20458;-83
2021/08/07 10:59:10;;;;;;;2.77;1.30;;;22.20;89.10;;;;;;6159055;23;20431;-81
2021/08/07 11:01:39;;;;;;;2.33;1.30;;;22.20;89.10;;;;;;6158456;23;20453;-82
2021/08/07 11:04:11;;;;;;;3.53;1.70;;;22.30;89.50;;;;;;6158595;23;20419;-83
2021/08/07 11:06:37;;;;;;;2.60;1.67;;;22.20;91.50;;;;;;6132496;23;20394;-80
2021/08/07 11:09:29;;;;;;;1.60;1.30;;;22.00;92.30;;;;;;6132727;23;20410;-82
2021/08/07 11:12:11;;;;;;;4.20;1.60;;;21.60;92.80;;;;;;6159343;23;20442;-84
2021/08/07 11:14:42;;;;;;;1.30;1.17;;;21.20;95.00;;;;;;6162267;23;20411;-84
2021/08/07 11:17:11;;;;;;;1.97;1.10;;;21.30;95.10;;;;;;6160994;23;20395;-82
2021/08/07 11:20:11;;;;;;;2.33;1.30;;;21.40;95.30;;;;;;6158603;23;20454;-79
2021/08/07 11:22:40;;;;;;;3.30;1.57;;;21.80;95.10;;;;;;6134934;23;20981;-84
2021/08/07 11:25:10;;;;;;;2.70;1.80;;;21.80;95.00;;;;;;6138319;23;20485;-82
2021/08/07 11:30:32;;;;;;;3.60;1.50;;;21.90;95.20;;;;;;6162635;23;20811;-82
2021/08/07 11:33:00;;;;;;;4.57;4.17;;;22.00;95.20;;;;;;6136219;23;20497;-84
2021/08/07 11:35:36;;;;;;;3.43;1.70;;;22.20;94.90;;;;;;6162297;23;20445;-82
2021/08/07 11:38:05;;;;;;;3.10;1.80;;;22.20;94.70;;;;;;6176271;23;20406;-84
2021/08/07 11:41:00;;;;;;;2.57;1.30;;;22.20;94.90;;;;;;6173695;23;20449;-81
2021/08/07 11:43:40;;;;;;;1.13;1.00;;;22.20;94.70;;;;;;6142005;23;20398;-83
2021/08/07 11:46:12;;;;;;;2.13;1.30;;;22.80;92.10;;;;;;6164525;23;20437;-83
2021/08/07 11:48:50;;;;;;;2.77;1.50;;;23.20;88.90;;;;;;6137476;23;20410;-82
2021/08/07 11:51:29;;;;;;;2.10;1.00;;;23.40;87.60;;;;;;6164198;23;20434;-83
2021/08/07 11:53:56;;;;;;;1.27;1.10;;;23.20;84.20;;;;;;6137461;23;20933;-84
2021/08/07 11:56:24;;;;;;;1.17;0.77;;;23.00;81.50;;;;;;6162733;23;20414;-81
2021/08/07 11:58:54;;;;;;;1.50;1.20;;;23.00;81.10;;;;;;6162378;23;21053;-85
2021/08/07 12:01:41;;;;;;;1.30;0.80;;;23.10;81.00;;;;;;6134668;23;20447;-83
2021/08/07 12:04:12;;;;;;;2.13;1.07;;;23.10;79.70;;;;;;6135413;23;20416;-82
2021/08/07 12:06:41;;;;;;;1.17;0.87;;;23.40;78.70;;;;;;6163048;23;20391;-82
2021/08/07 12:09:16;;;;;;;1.50;1.27;;;23.90;76.50;;;;;;6161945;23;20421;-83
2021/08/07 12:11:43;;;;;;;1.60;0.97;;;23.70;76.10;;;;;;6134111;23;20422;-82
2021/08/07 12:14:10;;;;;;;3.70;1.37;;;23.80;75.80;;;;;;6135311;23;20518;-81
2021/08/07 12:16:40;;;;;;;2.90;0.83;;;24.30;73.60;;;;;;6159793;23;20494;-84
2021/08/07 12:19:16;;;;;;;1.30;1.03;;;24.70;73.30;;;;;;6162273;23;20442;-83
2021/08/07 12:21:43;;;;;;;1.30;1.00;;;25.00;73.60;;;;;;6159084;23;20426;-84
2021/08/07 12:24:15;;;;;;;3.10;1.00;;;25.40;72.70;;;;;;6132662;23;20547;-84
2021/08/07 12:26:43;;;;;;;0.70;0.70;;;25.40;71.10;;;;;;6160359;23;20390;-82
2021/08/07 12:29:19;;;;;;;10.07;9.27;;;26.30;69.50;;;;;;6161887;23;20415;-86
2021/08/07 12:32:03;;;;;;;1.57;0.90;;;26.90;65.00;;;;;;6133054;23;20485;-83
2021/08/07 12:34:39;;;;;;;1.10;0.80;;;27.20;61.20;;;;;;6134304;23;20403;-82
2021/08/07 12:37:08;;;;;;;2.20;1.10;;;27.10;60.40;;;;;;6159964;23;20479;-83
2021/08/07 12:39:53;;;;;;;1.90;1.30;;;26.60;62.30;;;;;;6161331;23;20514;-83
2021/08/07 12:42:26;;;;;;;2.00;0.93;;;26.90;62.90;;;;;;6134769;23;20434;-83
2021/08/07 12:45:09;;;;;;;2.97;0.90;;;27.40;60.90;;;;;;6133885;23;20414;-82
2021/08/07 12:47:37;;;;;;;0.87;0.70;;;27.50;56.90;;;;;;6161331;23;20406;-84
2021/08/07 12:50:19;;;;;;;2.33;1.30;;;27.70;55.50;;;;;;6135676;23;20485;-82
2021/08/07 12:52:50;;;;;;;3.67;1.10;;;27.80;55.80;;;;;;6160525;23;20439;-85
2021/08/07 12:55:18;;;;;;;1.57;0.90;;;27.10;57.90;;;;;;6134631;23;20442;-82
2021/08/07 12:57:45;;;;;;;1.33;1.17;;;26.60;59.00;;;;;;6134850;23;20443;-82
2021/08/07 13:00:13;;;;;;;1.10;1.00;;;26.40;59.70;;;;;;6137471;23;20442;-84
2021/08/07 13:02:40;;;;;;;1.53;1.10;;;26.00;60.70;;;;;;6148786;23;20457;-81